Time;durP1;ratioP1;P1;durP2;ratioP2;P2;SDS_P1;SDS_P2;PMS_P1;PMS_P2;Temp;Humidity;BMP_temperature;BMP_pressure;BME280_temperature;BME280_humidity;BME280_pressure;Samples;Min_cycle;Max_cycle;Signal;HPM_P1;HPM_P2
2023/03/23 00:00:23;;;;;;;;;;;20.10;44.60;;;;;;5052291;28;19944;-54
2023/03/23 00:02:50;;;;;;;;;;;20.10;44.70;;;;;;5036020;28;20258;-55
2023/03/23 00:05:17;;;;;;;;;;;20.10;44.70;;;;;;5052933;28;20001;-56
2023/03/23 00:07:45;;;;;;;;;;;20.10;44.70;;;;;;5069043;28;19920;-57
2023/03/23 00:10:11;;;;;;;;;;;20.10;44.70;;;;;;5052163;28;19926;-52
2023/03/23 00:12:42;;;;;;;;;;;20.00;44.70;;;;;;5051786;28;20266;-54
2023/03/23 00:15:12;;;;;;;;;;;20.10;44.80;;;;;;5074174;28;19921;-56
2023/03/23 00:17:39;;;;;;;;;;;20.00;44.70;;;;;;5051425;28;20240;-56
2023/03/23 00:20:11;;;;;;;;;;;20.00;44.80;;;;;;5050025;28;19926;-56
2023/03/23 00:22:38;;;;;;;;;;;20.00;44.80;;;;;;5069070;28;19974;-55
2023/03/23 00:25:05;;;;;;;;;;;20.00;44.80;;;;;;5051206;28;19939;-58
2023/03/23 00:27:32;;;;;;;;;;;20.00;44.90;;;;;;5070003;28;20042;-57
2023/03/23 00:30:00;;;;;;;;;;;20.00;44.90;;;;;;5055535;28;19921;-56
2023/03/23 00:32:28;;;;;;;;;;;20.00;44.90;;;;;;5055295;28;20362;-58
2023/03/23 00:34:55;;;;;;;;;;;20.00;45.00;;;;;;5052092;28;19924;-55
2023/03/23 00:37:22;;;;;;;;;;;20.00;45.00;;;;;;5049453;28;19920;-56
2023/03/23 00:39:51;;;;;;;;;;;20.00;45.00;;;;;;5051776;28;20035;-54
2023/03/23 00:42:18;;;;;;;;;;;20.10;45.10;;;;;;5052255;28;19970;-56
2023/03/23 00:44:45;;;;;;;;;;;20.00;45.10;;;;;;5051109;28;20131;-56
2023/03/23 00:47:15;;;;;;;;;;;20.00;45.10;;;;;;5051227;28;20362;-56
2023/03/23 00:49:42;;;;;;;;;;;20.00;45.10;;;;;;5051488;28;19924;-56
2023/03/23 00:52:10;;;;;;;;;;;20.00;45.10;;;;;;5047843;28;19951;-56
2023/03/23 00:54:37;;;;;;;;;;;20.00;45.10;;;;;;5049394;28;19920;-55
2023/03/23 00:57:04;;;;;;;;;;;20.00;45.10;;;;;;5051951;28;19920;-55
2023/03/23 00:59:31;;;;;;;;;;;20.00;45.10;;;;;;5052997;28;19921;-56
2023/03/23 01:01:58;;;;;;;;;;;20.00;45.20;;;;;;5052770;28;19932;-55
2023/03/23 01:04:28;;;;;;;;;;;20.10;45.30;;;;;;5052366;28;19920;-56
2023/03/23 01:06:56;;;;;;;;;;;20.00;45.20;;;;;;5064877;28;19920;-55
2023/03/23 01:09:23;;;;;;;;;;;20.00;45.30;;;;;;5066658;28;19975;-56
2023/03/23 01:11:50;;;;;;;;;;;20.00;45.30;;;;;;5050594;28;19939;-55
2023/03/23 01:14:17;;;;;;;;;;;20.00;45.30;;;;;;5050577;28;19959;-55
2023/03/23 01:16:44;;;;;;;;;;;20.00;45.40;;;;;;5050988;28;19920;-56
2023/03/23 01:19:11;;;;;;;;;;;20.00;45.30;;;;;;5050600;28;20019;-55
2023/03/23 01:21:39;;;;;;;;;;;20.00;45.30;;;;;;5050431;28;19926;-56
2023/03/23 01:24:07;;;;;;;;;;;20.00;45.40;;;;;;5068488;28;20301;-56
2023/03/23 01:26:33;;;;;;;;;;;20.00;45.40;;;;;;5050278;28;19927;-54
2023/03/23 01:29:00;;;;;;;;;;;20.00;45.40;;;;;;5069752;28;19927;-55
2023/03/23 01:31:27;;;;;;;;;;;20.00;45.50;;;;;;5069152;28;19924;-56
2023/03/23 01:33:55;;;;;;;;;;;20.00;45.50;;;;;;5052854;28;20416;-57
2023/03/23 01:36:22;;;;;;;;;;;20.00;45.50;;;;;;5049833;28;19928;-56
2023/03/23 01:38:50;;;;;;;;;;;20.00;45.50;;;;;;5050200;28;19982;-54
2023/03/23 01:41:17;;;;;;;;;;;20.00;45.50;;;;;;5068001;28;19920;-55
2023/03/23 01:43:57;;;;;;;;;;;20.00;45.50;;;;;;5051629;28;19924;-54
2023/03/23 01:46:24;;;;;;;;;;;20.00;45.50;;;;;;5049865;28;19928;-56
2023/03/23 01:48:51;;;;;;;;;;;20.00;45.50;;;;;;5050421;28;19921;-57
2023/03/23 01:51:18;;;;;;;;;;;20.00;45.60;;;;;;5050313;28;20363;-55
2023/03/23 01:53:46;;;;;;;;;;;20.00;45.60;;;;;;5051464;28;19990;-56
2023/03/23 01:56:14;;;;;;;;;;;20.00;45.60;;;;;;5049266;28;19990;-55
2023/03/23 01:58:41;;;;;;;;;;;20.00;45.60;;;;;;5069545;28;19971;-56
2023/03/23 02:01:11;;;;;;;;;;;20.00;45.60;;;;;;5049743;28;20251;-56
2023/03/23 02:03:38;;;;;;;;;;;20.00;45.70;;;;;;5051625;28;19921;-56
2023/03/23 02:06:05;;;;;;;;;;;20.00;45.80;;;;;;5054825;28;19927;-56
2023/03/23 02:08:32;;;;;;;;;;;20.00;45.80;;;;;;5077700;28;20419;-57
2023/03/23 02:10:59;;;;;;;;;;;20.00;45.80;;;;;;5076387;28;19921;-55
2023/03/23 02:13:27;;;;;;;;;;;20.00;45.80;;;;;;5055555;28;19975;-56
2023/03/23 02:15:57;;;;;;;;;;;20.00;45.80;;;;;;5054031;28;20313;-55
2023/03/23 02:18:27;;;;;;;;;;;20.00;45.80;;;;;;5053972;28;19935;-56
2023/03/23 02:21:18;;;;;;;;;;;20.00;45.80;;;;;;5071801;28;20191;-54
2023/03/23 02:23:53;;;;;;;;;;;20.00;45.80;;;;;;4992388;28;19929;-56
2023/03/23 02:26:22;;;;;;;;;;;20.00;45.80;;;;;;5049928;28;19920;-56
2023/03/23 02:29:11;;;;;;;;;;;20.00;45.80;;;;;;5073076;28;19963;-56
2023/03/23 02:31:44;;;;;;;;;;;20.00;45.80;;;;;;5047760;28;19920;-56
2023/03/23 02:34:12;;;;;;;;;;;20.00;45.90;;;;;;5053344;28;19921;-56
2023/03/23 02:36:39;;;;;;;;;;;20.00;45.90;;;;;;5051184;28;20036;-55
2023/03/23 02:39:08;;;;;;;;;;;20.00;45.90;;;;;;5075036;28;19927;-56
2023/03/23 02:41:35;;;;;;;;;;;20.00;45.90;;;;;;5074068;28;19921;-55
2023/03/23 02:44:02;;;;;;;;;;;20.00;45.90;;;;;;5055019;28;19920;-56
2023/03/23 02:46:29;;;;;;;;;;;20.00;46.00;;;;;;5068199;28;19921;-56
2023/03/23 02:48:56;;;;;;;;;;;20.00;46.00;;;;;;5053233;28;19927;-55
2023/03/23 02:51:25;;;;;;;;;;;20.00;46.00;;;;;;5070716;28;20371;-56
2023/03/23 02:53:52;;;;;;;;;;;20.00;46.00;;;;;;5070987;28;19926;-57
2023/03/23 02:56:19;;;;;;;;;;;19.90;45.90;;;;;;5050717;28;20005;-55
2023/03/23 02:58:46;;;;;;;;;;;19.90;46.00;;;;;;5071536;28;19977;-56
2023/03/23 03:01:17;;;;;;;;;;;19.90;46.00;;;;;;5055893;28;19970;-56
2023/03/23 03:03:44;;;;;;;;;;;19.90;46.00;;;;;;5053355;28;19959;-56
2023/03/23 03:06:11;;;;;;;;;;;19.90;46.00;;;;;;5052250;28;19963;-55
2023/03/23 03:08:41;;;;;;;;;;;19.90;46.00;;;;;;5052782;28;20270;-56
2023/03/23 03:11:08;;;;;;;;;;;19.90;46.00;;;;;;5054694;28;19974;-57
2023/03/23 03:13:38;;;;;;;;;;;19.90;46.00;;;;;;5071663;28;20011;-56
2023/03/23 03:16:06;;;;;;;;;;;19.90;46.00;;;;;;5052925;28;19924;-55
2023/03/23 03:18:33;;;;;;;;;;;19.90;46.10;;;;;;5052499;28;19951;-55
2023/03/23 03:21:01;;;;;;;;;;;19.90;46.10;;;;;;5051554;28;19986;-56
2023/03/23 03:23:27;;;;;;;;;;;19.90;46.10;;;;;;5054689;28;19920;-56
2023/03/23 03:25:57;;;;;;;;;;;19.90;46.10;;;;;;5051524;28;19924;-57
2023/03/23 03:28:24;;;;;;;;;;;20.00;46.20;;;;;;5053931;28;19928;-57
2023/03/23 03:30:51;;;;;;;;;;;19.90;46.10;;;;;;5052058;28;20313;-55
2023/03/23 03:33:20;;;;;;;;;;;20.00;46.20;;;;;;5053170;28;19969;-52
2023/03/23 03:35:47;;;;;;;;;;;19.90;46.10;;;;;;5068916;28;19920;-56
2023/03/23 03:38:13;;;;;;;;;;;19.90;46.10;;;;;;5054126;28;19921;-57
2023/03/23 03:40:40;;;;;;;;;;;19.90;46.20;;;;;;5048641;28;19966;-57
2023/03/23 03:43:09;;;;;;;;;;;19.90;46.20;;;;;;5058422;28;19931;-57
2023/03/23 03:45:35;;;;;;;;;;;19.90;46.20;;;;;;5058032;28;19966;-57
2023/03/23 03:48:02;;;;;;;;;;;19.90;46.30;;;;;;5055916;28;19920;-57
2023/03/23 03:50:29;;;;;;;;;;;19.90;46.20;;;;;;5071566;28;19974;-55
2023/03/23 03:52:56;;;;;;;;;;;19.90;46.20;;;;;;5047095;28;19944;-56
2023/03/23 03:55:22;;;;;;;;;;;19.90;46.20;;;;;;5062689;28;19971;-56
2023/03/23 03:57:49;;;;;;;;;;;19.90;46.20;;;;;;5090713;28;19969;-57
2023/03/23 04:00:18;;;;;;;;;;;19.90;46.30;;;;;;5074152;28;19927;-57
2023/03/23 04:02:47;;;;;;;;;;;19.90;46.30;;;;;;5071280;28;20022;-56
2023/03/23 04:05:14;;;;;;;;;;;19.90;46.30;;;;;;5052681;28;19927;-54
2023/03/23 04:07:41;;;;;;;;;;;19.90;46.30;;;;;;5070026;28;20053;-55
2023/03/23 04:10:11;;;;;;;;;;;19.90;46.30;;;;;;5047570;28;20383;-56
2023/03/23 04:12:38;;;;;;;;;;;19.90;46.30;;;;;;5048649;28;19925;-54
2023/03/23 04:15:05;;;;;;;;;;;19.90;46.30;;;;;;5051658;28;20358;-54
2023/03/23 04:17:33;;;;;;;;;;;19.90;46.30;;;;;;5052647;28;20317;-56
2023/03/23 04:20:06;;;;;;;;;;;19.90;46.30;;;;;;5052149;28;19921;-55
2023/03/23 04:22:33;;;;;;;;;;;19.90;46.30;;;;;;5052620;28;20039;-54
2023/03/23 04:25:02;;;;;;;;;;;19.90;46.40;;;;;;5062668;28;19920;-56
2023/03/23 04:27:29;;;;;;;;;;;19.90;46.40;;;;;;5065823;28;19921;-55
2023/03/23 04:29:57;;;;;;;;;;;19.90;46.40;;;;;;5055412;28;19927;-55
2023/03/23 04:32:24;;;;;;;;;;;19.90;46.40;;;;;;5060789;28;19970;-56
2023/03/23 04:34:52;;;;;;;;;;;19.90;46.40;;;;;;5052165;28;20290;-55
2023/03/23 04:37:20;;;;;;;;;;;19.90;46.40;;;;;;5053013;28;19920;-55
2023/03/23 04:39:46;;;;;;;;;;;19.90;46.40;;;;;;5053077;28;19983;-55
2023/03/23 04:42:14;;;;;;;;;;;19.90;46.40;;;;;;5070636;28;19978;-55
2023/03/23 04:44:43;;;;;;;;;;;19.90;46.40;;;;;;5048653;28;20278;-55
2023/03/23 04:47:10;;;;;;;;;;;19.90;46.40;;;;;;5052871;28;19950;-56
2023/03/23 04:49:37;;;;;;;;;;;19.90;46.40;;;;;;5055329;28;19920;-55
2023/03/23 04:52:05;;;;;;;;;;;19.90;46.40;;;;;;5057428;28;19966;-53
2023/03/23 04:54:32;;;;;;;;;;;19.90;46.40;;;;;;5057345;28;20266;-54
2023/03/23 04:56:59;;;;;;;;;;;19.90;46.40;;;;;;5067565;28;19929;-53
2023/03/23 04:59:27;;;;;;;;;;;19.90;46.40;;;;;;5068187;28;19927;-55
2023/03/23 05:01:56;;;;;;;;;;;19.90;46.40;;;;;;5051487;28;20015;-56
2023/03/23 05:04:24;;;;;;;;;;;19.90;46.40;;;;;;5052403;28;20350;-56
2023/03/23 05:06:52;;;;;;;;;;;19.90;46.40;;;;;;5054595;28;20317;-53
2023/03/23 05:09:20;;;;;;;;;;;19.90;46.40;;;;;;5056000;28;19925;-56
2023/03/23 05:11:47;;;;;;;;;;;19.90;46.40;;;;;;5056654;28;19921;-57
2023/03/23 05:14:14;;;;;;;;;;;19.90;46.40;;;;;;5056991;28;19920;-55
2023/03/23 05:16:41;;;;;;;;;;;19.90;46.40;;;;;;5050491;28;19925;-54
2023/03/23 05:19:07;;;;;;;;;;;19.90;46.40;;;;;;5051107;28;19926;-54
2023/03/23 05:21:35;;;;;;;;;;;19.90;46.50;;;;;;5050837;28;19973;-52
2023/03/23 05:24:02;;;;;;;;;;;19.90;46.50;;;;;;5068658;28;20019;-58
2023/03/23 05:26:30;;;;;;;;;;;19.90;46.50;;;;;;5050663;28;19966;-56
2023/03/23 05:28:57;;;;;;;;;;;19.90;46.40;;;;;;5050713;28;20321;-56
2023/03/23 05:31:24;;;;;;;;;;;19.90;46.50;;;;;;5068363;28;19924;-56
2023/03/23 05:33:50;;;;;;;;;;;19.90;46.50;;;;;;5049418;28;19921;-56
2023/03/23 05:36:17;;;;;;;;;;;19.90;46.50;;;;;;5051709;28;19920;-56
2023/03/23 05:38:45;;;;;;;;;;;19.90;46.50;;;;;;5049852;28;19927;-55
2023/03/23 05:41:12;;;;;;;;;;;19.90;46.40;;;;;;5072752;28;20373;-56
2023/03/23 05:43:40;;;;;;;;;;;19.90;46.50;;;;;;5058011;28;19928;-56
2023/03/23 05:46:08;;;;;;;;;;;19.90;46.50;;;;;;5058594;28;20260;-56
2023/03/23 05:48:35;;;;;;;;;;;19.90;46.50;;;;;;5058160;28;19931;-56
2023/03/23 05:51:02;;;;;;;;;;;19.90;46.50;;;;;;5057115;28;19921;-56
2023/03/23 05:53:29;;;;;;;;;;;19.90;46.50;;;;;;5056857;28;20001;-55
2023/03/23 05:55:58;;;;;;;;;;;19.90;46.50;;;;;;5075607;28;19979;-55
2023/03/23 05:58:25;;;;;;;;;;;19.90;46.40;;;;;;5057733;28;19974;-56
2023/03/23 06:00:53;;;;;;;;;;;19.90;46.40;;;;;;5077446;28;19986;-55
2023/03/23 06:03:20;;;;;;;;;;;19.90;46.50;;;;;;5057540;28;19954;-55
2023/03/23 06:05:47;;;;;;;;;;;19.80;46.40;;;;;;5044306;28;19925;-54
2023/03/23 06:08:14;;;;;;;;;;;19.90;46.50;;;;;;5056784;28;19920;-56
2023/03/23 06:10:41;;;;;;;;;;;19.90;46.50;;;;;;5060030;28;19920;-54
2023/03/23 06:13:07;;;;;;;;;;;19.90;46.50;;;;;;5074477;28;19920;-55
2023/03/23 06:15:34;;;;;;;;;;;19.90;46.40;;;;;;5057009;28;19920;-54
2023/03/23 06:18:05;;;;;;;;;;;19.90;46.40;;;;;;5057466;28;22846;-57
2023/03/23 06:20:32;;;;;;;;;;;19.90;46.40;;;;;;5056638;28;19959;-55
2023/03/23 06:23:01;;;;;;;;;;;19.90;46.40;;;;;;5057332;28;20007;-55
2023/03/23 06:25:29;;;;;;;;;;;19.90;46.50;;;;;;5068786;28;19920;-56
2023/03/23 06:27:57;;;;;;;;;;;19.90;46.40;;;;;;5078878;28;19942;-55
2023/03/23 06:30:24;;;;;;;;;;;19.90;46.40;;;;;;5080003;28;19963;-56
2023/03/23 06:32:51;;;;;;;;;;;19.80;46.40;;;;;;5076518;28;19920;-55
2023/03/23 06:35:19;;;;;;;;;;;19.90;46.40;;;;;;5062906;28;19968;-56
2023/03/23 06:37:45;;;;;;;;;;;19.90;46.50;;;;;;5061698;28;20413;-55
2023/03/23 06:40:12;;;;;;;;;;;19.90;46.40;;;;;;5062900;28;20024;-55
2023/03/23 06:42:39;;;;;;;;;;;19.90;46.50;;;;;;5080095;28;19960;-56
2023/03/23 06:45:07;;;;;;;;;;;19.90;46.40;;;;;;5079953;28;19920;-56
2023/03/23 06:47:34;;;;;;;;;;;19.80;46.40;;;;;;5061746;28;20204;-55
2023/03/23 06:50:01;;;;;;;;;;;19.90;46.40;;;;;;5061831;28;19920;-56
2023/03/23 06:52:29;;;;;;;;;;;19.80;46.40;;;;;;5059428;28;19924;-56
2023/03/23 06:54:56;;;;;;;;;;;19.80;46.40;;;;;;5054881;28;19937;-56
2023/03/23 06:57:23;;;;;;;;;;;19.80;46.50;;;;;;5075046;28;19973;-55
2023/03/23 06:59:49;;;;;;;;;;;19.80;46.40;;;;;;5059447;28;20378;-55
2023/03/23 07:02:18;;;;;;;;;;;19.80;46.40;;;;;;5059007;28;19970;-53
2023/03/23 07:04:45;;;;;;;;;;;19.80;46.40;;;;;;5058341;28;20384;-55
2023/03/23 07:07:14;;;;;;;;;;;19.80;46.90;;;;;;5058722;28;19927;-54
2023/03/23 07:09:43;;;;;;;;;;;19.80;46.40;;;;;;5056489;28;20011;-54
2023/03/23 07:12:10;;;;;;;;;;;19.80;46.30;;;;;;5056649;28;19967;-53
2023/03/23 07:14:36;;;;;;;;;;;19.90;46.40;;;;;;5056615;28;19921;-55
2023/03/23 07:17:03;;;;;;;;;;;19.80;46.30;;;;;;5076373;28;19974;-54
2023/03/23 07:19:30;;;;;;;;;;;19.80;46.30;;;;;;5058772;28;19974;-56
2023/03/23 07:21:57;;;;;;;;;;;19.90;46.40;;;;;;5058833;28;19928;-56
2023/03/23 07:24:24;;;;;;;;;;;19.90;46.40;;;;;;5055992;28;19971;-54
2023/03/23 07:26:52;;;;;;;;;;;19.90;46.40;;;;;;5056470;28;19924;-55
2023/03/23 07:29:19;;;;;;;;;;;19.90;46.40;;;;;;5059754;28;20275;-54
2023/03/23 07:31:46;;;;;;;;;;;19.90;46.40;;;;;;5058977;28;19966;-57
2023/03/23 07:34:13;;;;;;;;;;;19.90;46.40;;;;;;5061192;28;19927;-54
2023/03/23 07:36:40;;;;;;;;;;;19.90;46.50;;;;;;5064857;28;19924;-56
2023/03/23 07:39:07;;;;;;;;;;;19.90;46.40;;;;;;5055656;28;19920;-56
2023/03/23 07:41:33;;;;;;;;;;;19.90;46.40;;;;;;5062301;28;19982;-55
2023/03/23 07:44:01;;;;;;;;;;;19.90;46.40;;;;;;5074379;28;20247;-51
2023/03/23 07:46:28;;;;;;;;;;;19.90;46.40;;;;;;5069521;28;19932;-57
2023/03/23 07:48:56;;;;;;;;;;;19.90;46.40;;;;;;5053486;28;20381;-55
2023/03/23 07:51:23;;;;;;;;;;;19.90;46.40;;;;;;5066831;28;19921;-56
2023/03/23 07:53:49;;;;;;;;;;;19.90;46.40;;;;;;5040291;28;20038;-56
2023/03/23 07:56:18;;;;;;;;;;;19.90;46.40;;;;;;5067881;28;19925;-55
2023/03/23 07:58:45;;;;;;;;;;;19.90;46.40;;;;;;5055472;28;20461;-56
2023/03/23 08:01:13;;;;;;;;;;;19.90;46.40;;;;;;5057036;28;19921;-56
2023/03/23 08:03:40;;;;;;;;;;;19.90;46.40;;;;;;5064879;28;19925;-56
2023/03/23 08:06:08;;;;;;;;;;;19.90;46.40;;;;;;5065001;28;19924;-52
2023/03/23 08:08:35;;;;;;;;;;;19.90;46.40;;;;;;5058491;28;19920;-55
2023/03/23 08:11:02;;;;;;;;;;;19.90;46.40;;;;;;5057536;28;19920;-54
2023/03/23 08:13:29;;;;;;;;;;;19.90;46.40;;;;;;5055296;28;19970;-56
2023/03/23 08:15:56;;;;;;;;;;;19.90;46.50;;;;;;5057302;28;20011;-52
2023/03/23 08:18:25;;;;;;;;;;;19.90;46.40;;;;;;5065155;28;20013;-56
2023/03/23 08:20:52;;;;;;;;;;;19.90;46.50;;;;;;5055752;28;19920;-57
2023/03/23 08:23:19;;;;;;;;;;;19.90;46.40;;;;;;5066711;28;20007;-56
2023/03/23 08:25:47;;;;;;;;;;;19.90;46.50;;;;;;5070327;28;19921;-53
2023/03/23 08:28:14;;;;;;;;;;;19.90;46.50;;;;;;5052673;28;20438;-53
2023/03/23 08:30:42;;;;;;;;;;;19.90;46.50;;;;;;5054135;28;19925;-55
2023/03/23 08:33:10;;;;;;;;;;;19.90;46.50;;;;;;5054545;28;19921;-56
2023/03/23 08:35:38;;;;;;;;;;;19.90;46.50;;;;;;5051523;28;19974;-56
2023/03/23 08:38:05;;;;;;;;;;;19.90;46.60;;;;;;5060336;28;20022;-56
2023/03/23 08:40:32;;;;;;;;;;;19.90;46.60;;;;;;5063643;28;19925;-57
2023/03/23 08:42:58;;;;;;;;;;;19.90;46.60;;;;;;5069387;28;19928;-57
2023/03/23 08:45:26;;;;;;;;;;;19.90;46.60;;;;;;5050941;28;19932;-53
2023/03/23 08:47:54;;;;;;;;;;;19.90;46.60;;;;;;5051234;28;19931;-54
2023/03/23 08:50:23;;;;;;;;;;;19.90;46.60;;;;;;5051114;28;19947;-56
2023/03/23 08:52:51;;;;;;;;;;;19.90;46.50;;;;;;5069034;28;19939;-54
2023/03/23 08:55:18;;;;;;;;;;;19.90;46.50;;;;;;5049838;28;20351;-55
2023/03/23 08:57:45;;;;;;;;;;;19.90;46.60;;;;;;5067951;28;20019;-55
2023/03/23 09:00:16;;;;;;;;;;;19.90;46.50;;;;;;5051607;28;19978;-57
2023/03/23 09:02:43;;;;;;;;;;;19.90;46.50;;;;;;5050316;28;19943;-56
2023/03/23 09:05:11;;;;;;;;;;;19.90;46.50;;;;;;5050930;28;20370;-56
2023/03/23 09:07:38;;;;;;;;;;;20.00;46.60;;;;;;5046533;28;19928;-56
2023/03/23 09:10:07;;;;;;;;;;;20.00;46.60;;;;;;5059033;28;20106;-57
2023/03/23 09:12:34;;;;;;;;;;;20.00;46.60;;;;;;5058740;28;20031;-54
2023/03/23 09:15:05;;;;;;;;;;;20.00;46.60;;;;;;5065663;28;19932;-56
2023/03/23 09:17:31;;;;;;;;;;;20.00;46.60;;;;;;5067875;28;19974;-56
2023/03/23 09:19:58;;;;;;;;;;;20.00;46.60;;;;;;5054121;28;19920;-53
2023/03/23 09:22:25;;;;;;;;;;;20.00;46.60;;;;;;5064248;28;19935;-55
2023/03/23 09:24:52;;;;;;;;;;;20.00;46.60;;;;;;5059069;28;19924;-55
2023/03/23 09:27:20;;;;;;;;;;;20.00;46.60;;;;;;5059682;28;19931;-54
2023/03/23 09:29:48;;;;;;;;;;;20.00;46.60;;;;;;5063764;28;19920;-56
2023/03/23 09:32:15;;;;;;;;;;;20.00;46.60;;;;;;5049368;28;19921;-56
2023/03/23 09:34:42;;;;;;;;;;;20.00;46.60;;;;;;5061226;28;19924;-56
2023/03/23 09:37:09;;;;;;;;;;;20.00;46.60;;;;;;5051644;28;19924;-56
2023/03/23 09:39:36;;;;;;;;;;;20.00;46.60;;;;;;5062504;28;19971;-56
2023/03/23 09:42:09;;;;;;;;;;;20.00;46.50;;;;;;5065949;28;20009;-55
2023/03/23 09:44:42;;;;;;;;;;;20.00;46.50;;;;;;5066958;28;20011;-55
2023/03/23 09:47:11;;;;;;;;;;;20.00;46.50;;;;;;5064152;28;19921;-55
2023/03/23 09:49:38;;;;;;;;;;;20.00;46.50;;;;;;5064049;28;19920;-55
2023/03/23 09:52:06;;;;;;;;;;;19.90;46.40;;;;;;5050272;28;19920;-56
2023/03/23 09:54:36;;;;;;;;;;;20.00;46.50;;;;;;5051116;28;19928;-55
2023/03/23 09:57:02;;;;;;;;;;;20.00;46.50;;;;;;5067719;28;19935;-55
2023/03/23 09:59:30;;;;;;;;;;;19.90;46.40;;;;;;5064691;28;20014;-56
2023/03/23 10:01:59;;;;;;;;;;;20.00;46.40;;;;;;5064464;28;20273;-56
2023/03/23 10:04:28;;;;;;;;;;;20.00;46.40;;;;;;5067699;28;20402;-52
2023/03/23 10:06:56;;;;;;;;;;;19.90;46.40;;;;;;5066434;28;19967;-55
2023/03/23 10:09:23;;;;;;;;;;;20.00;46.40;;;;;;5067306;28;19939;-56
2023/03/23 10:11:52;;;;;;;;;;;19.90;46.40;;;;;;5046765;28;20297;-54
2023/03/23 10:14:23;;;;;;;;;;;20.00;46.40;;;;;;5064938;28;20015;-57
2023/03/23 10:16:54;;;;;;;;;;;20.00;46.40;;;;;;5065422;28;19926;-56
2023/03/23 10:19:24;;;;;;;;;;;20.00;46.40;;;;;;5064944;28;19991;-54
2023/03/23 10:21:52;;;;;;;;;;;19.90;46.30;;;;;;5067777;28;20026;-56
2023/03/23 10:24:20;;;;;;;;;;;19.90;46.30;;;;;;5062742;28;20034;-56
2023/03/23 10:26:49;;;;;;;;;;;20.00;46.40;;;;;;5068423;28;19951;-57
2023/03/23 10:29:18;;;;;;;;;;;20.00;46.40;;;;;;5054585;28;19920;-55
2023/03/23 10:31:46;;;;;;;;;;;20.00;46.40;;;;;;5064710;28;19928;-56
2023/03/23 10:34:15;;;;;;;;;;;20.00;46.40;;;;;;5058887;28;19931;-55
2023/03/23 10:36:57;;;;;;;;;;;20.00;46.40;;;;;;5041999;28;20302;-56
2023/03/23 10:39:24;;;;;;;;;;;20.00;46.40;;;;;;5067874;28;19932;-55
2023/03/23 10:41:52;;;;;;;;;;;20.00;46.40;;;;;;5063925;28;19920;-57
2023/03/23 10:44:21;;;;;;;;;;;20.00;46.40;;;;;;5065536;28;19924;-54
2023/03/23 10:46:50;;;;;;;;;;;20.00;46.40;;;;;;5059477;28;19921;-56
2023/03/23 10:49:17;;;;;;;;;;;20.00;46.40;;;;;;5052212;28;19928;-55
2023/03/23 10:51:46;;;;;;;;;;;20.00;46.40;;;;;;5070626;28;19927;-54
2023/03/23 10:54:12;;;;;;;;;;;20.00;46.40;;;;;;5056056;28;19920;-60
2023/03/23 10:56:40;;;;;;;;;;;20.00;46.40;;;;;;5071055;28;19958;-62
2023/03/23 10:59:13;;;;;;;;;;;20.00;46.40;;;;;;5073244;28;19924;-58
2023/03/23 11:01:42;;;;;;;;;;;20.00;46.40;;;;;;5051546;28;19920;-60
2023/03/23 11:04:11;;;;;;;;;;;20.00;46.40;;;;;;5071102;28;19935;-60
2023/03/23 11:06:42;;;;;;;;;;;20.00;46.40;;;;;;5052554;28;19920;-60
2023/03/23 11:09:11;;;;;;;;;;;20.00;46.40;;;;;;5052897;28;19950;-60
2023/03/23 11:11:42;;;;;;;;;;;20.00;46.40;;;;;;5053375;28;19920;-60
2023/03/23 11:14:15;;;;;;;;;;;20.00;46.50;;;;;;5053184;28;19927;-60
2023/03/23 11:16:44;;;;;;;;;;;20.00;46.40;;;;;;5053613;28;19920;-59
2023/03/23 11:19:14;;;;;;;;;;;20.00;46.40;;;;;;5053350;28;19924;-59
2023/03/23 11:21:42;;;;;;;;;;;20.00;46.40;;;;;;5052222;28;19956;-59
2023/03/23 11:24:08;;;;;;;;;;;20.00;46.50;;;;;;5070061;28;19921;-60
2023/03/23 11:26:37;;;;;;;;;;;20.00;46.50;;;;;;5074130;28;19924;-59
2023/03/23 11:29:05;;;;;;;;;;;20.00;46.60;;;;;;5062926;28;19936;-57
2023/03/23 11:31:33;;;;;;;;;;;20.10;46.70;;;;;;5047115;28;20001;-57
2023/03/23 11:34:01;;;;;;;;;;;20.10;46.70;;;;;;5052723;28;19924;-56
2023/03/23 11:36:34;;;;;;;;;;;20.10;46.70;;;;;;5054201;28;19939;-54
2023/03/23 11:39:05;;;;;;;;;;;20.10;46.80;;;;;;5066636;28;20069;-56
2023/03/23 11:41:33;;;;;;;;;;;20.10;46.80;;;;;;5078430;28;19921;-54
2023/03/23 11:44:03;;;;;;;;;;;20.10;46.80;;;;;;5067462;28;19933;-50
2023/03/23 11:46:32;;;;;;;;;;;20.10;46.90;;;;;;5070374;28;19924;-53
2023/03/23 11:49:00;;;;;;;;;;;20.10;46.90;;;;;;5066611;28;19959;-52
2023/03/23 11:51:30;;;;;;;;;;;20.10;46.90;;;;;;5056235;28;19927;-55
2023/03/23 11:53:58;;;;;;;;;;;20.10;46.90;;;;;;5063514;28;19955;-52
2023/03/23 11:56:26;;;;;;;;;;;20.10;46.80;;;;;;5066140;28;19955;-52
2023/03/23 11:58:53;;;;;;;;;;;20.10;46.80;;;;;;5068141;28;19927;-53
2023/03/23 12:01:40;;;;;;;;;;;20.10;46.80;;;;;;5066940;28;19920;-53
2023/03/23 12:04:23;;;;;;;;;;;20.10;46.80;;;;;;5062366;28;19924;-52
2023/03/23 12:06:50;;;;;;;;;;;20.10;46.80;;;;;;5066521;28;19924;-51
2023/03/23 12:09:23;;;;;;;;;;;20.20;47.00;;;;;;5060855;28;19932;-53
2023/03/23 12:11:53;;;;;;;;;;;20.20;47.00;;;;;;5051203;28;19921;-51
2023/03/23 12:14:21;;;;;;;;;;;20.20;46.90;;;;;;5051083;28;19928;-53
2023/03/23 12:16:53;;;;;;;;;;;20.20;46.90;;;;;;5057271;28;19931;-54
2023/03/23 12:19:22;;;;;;;;;;;20.20;46.90;;;;;;5052757;28;20004;-54
2023/03/23 12:21:51;;;;;;;;;;;20.20;46.90;;;;;;5055782;28;19931;-53
2023/03/23 12:24:22;;;;;;;;;;;20.20;47.00;;;;;;5063966;28;19924;-54
2023/03/23 12:26:51;;;;;;;;;;;20.20;47.00;;;;;;5068304;28;19921;-55
2023/03/23 12:29:24;;;;;;;;;;;20.20;47.00;;;;;;5054732;28;19931;-53
2023/03/23 12:31:56;;;;;;;;;;;20.20;47.10;;;;;;5048115;28;19986;-51
2023/03/23 12:34:26;;;;;;;;;;;20.20;47.10;;;;;;5047861;28;19948;-50
2023/03/23 12:36:56;;;;;;;;;;;20.20;47.10;;;;;;5052563;28;19928;-53
2023/03/23 12:39:43;;;;;;;;;;;20.20;47.10;;;;;;5050588;28;19983;-51
2023/03/23 12:42:12;;;;;;;;;;;20.20;47.10;;;;;;5053346;28;19921;-53
2023/03/23 12:44:41;;;;;;;;;;;20.10;47.00;;;;;;5066479;28;19928;-52
2023/03/23 12:47:11;;;;;;;;;;;20.10;47.10;;;;;;5052485;28;20025;-50
2023/03/23 12:49:38;;;;;;;;;;;20.10;47.00;;;;;;5059252;28;19927;-52
2023/03/23 12:52:06;;;;;;;;;;;20.20;47.10;;;;;;5063081;28;19959;-54
2023/03/23 12:54:34;;;;;;;;;;;20.10;47.10;;;;;;5062734;28;20303;-54
2023/03/23 12:57:03;;;;;;;;;;;20.10;47.10;;;;;;5056585;28;19932;-53
2023/03/23 12:59:35;;;;;;;;;;;20.10;47.10;;;;;;5061640;28;19921;-54
2023/03/23 13:02:03;;;;;;;;;;;20.10;47.10;;;;;;5069100;28;19920;-52
2023/03/23 13:04:34;;;;;;;;;;;20.10;47.10;;;;;;5063665;28;19920;-52
2023/03/23 13:07:02;;;;;;;;;;;20.10;47.10;;;;;;5067797;28;19921;-54
2023/03/23 13:09:31;;;;;;;;;;;20.10;47.00;;;;;;5065403;28;20363;-51
2023/03/23 13:11:59;;;;;;;;;;;20.10;47.00;;;;;;5063586;28;19946;-52
2023/03/23 13:14:30;;;;;;;;;;;20.10;47.00;;;;;;5067048;28;19974;-51
2023/03/23 13:16:59;;;;;;;;;;;20.10;47.00;;;;;;5060795;28;19920;-53
2023/03/23 13:19:27;;;;;;;;;;;20.10;47.00;;;;;;5055603;28;19928;-54
2023/03/23 13:21:57;;;;;;;;;;;20.10;47.10;;;;;;5069197;28;19921;-55
2023/03/23 13:24:25;;;;;;;;;;;20.10;47.00;;;;;;5064423;28;19920;-50
2023/03/23 13:26:52;;;;;;;;;;;20.10;47.00;;;;;;5057462;28;19924;-52
2023/03/23 13:29:19;;;;;;;;;;;20.10;47.10;;;;;;5054722;28;19921;-52
2023/03/23 13:31:46;;;;;;;;;;;20.10;47.00;;;;;;5061771;28;20494;-52
2023/03/23 13:34:16;;;;;;;;;;;20.10;47.00;;;;;;5055310;28;19951;-51
2023/03/23 13:36:43;;;;;;;;;;;20.10;47.00;;;;;;5058851;28;20281;-55
2023/03/23 13:39:19;;;;;;;;;;;20.10;47.00;;;;;;5055535;28;19928;-51
2023/03/23 13:41:49;;;;;;;;;;;20.10;47.00;;;;;;5050195;28;19929;-51
2023/03/23 13:44:18;;;;;;;;;;;20.10;47.00;;;;;;5056259;28;19924;-52
2023/03/23 13:46:54;;;;;;;;;;;20.10;47.00;;;;;;5074244;28;19974;-50
2023/03/23 13:49:22;;;;;;;;;;;20.10;47.00;;;;;;5055952;28;20373;-55
2023/03/23 13:51:53;;;;;;;;;;;20.10;46.90;;;;;;5055647;28;19931;-51
2023/03/23 13:54:27;;;;;;;;;;;20.10;47.00;;;;;;5055781;28;19943;-51
2023/03/23 13:56:55;;;;;;;;;;;20.20;47.20;;;;;;5054200;28;20374;-54
2023/03/23 13:59:35;;;;;;;;;;;20.20;47.10;;;;;;5057441;28;19927;-51
2023/03/23 14:02:20;;;;;;;;;;;20.20;47.20;;;;;;5056473;28;19951;-51
2023/03/23 14:04:47;;;;;;;;;;;20.20;47.30;;;;;;5049606;28;20089;-53
2023/03/23 14:07:18;;;;;;;;;;;20.20;47.30;;;;;;5071664;28;20248;-51
2023/03/23 14:09:47;;;;;;;;;;;20.20;47.30;;;;;;5073768;28;19931;-55
2023/03/23 14:12:15;;;;;;;;;;;20.20;47.30;;;;;;5075472;28;19955;-54
2023/03/23 14:14:43;;;;;;;;;;;20.20;47.30;;;;;;5057592;28;19955;-55
2023/03/23 14:17:12;;;;;;;;;;;20.20;47.40;;;;;;5076107;28;20316;-54
2023/03/23 14:19:39;;;;;;;;;;;20.20;47.40;;;;;;5076655;28;19982;-52
2023/03/23 14:22:06;;;;;;;;;;;20.20;47.30;;;;;;5077263;28;19974;-54